Terminal Aerodrome Forecast
Issued by NWS Upton, NY

Home | Current Version | Previous Version | Text Only | Print | Product List | Glossary On
Versions: 1 2 3 4 5 6 7 8 9 10 11 12 13 14 15 16 17 18 19 20 21 22 23 24 25 26 27 28 29 30 31 32 33
000
FTUS41 KOKX 271922 AAC
TAFEWR
TAF AMD
KEWR 271922Z 2719/2824 16013G21KT P6SM FEW020 BKN040
      TEMPO 2722/2724 -TSRA SCT020 BKN040CB
     FM280100 21010KT P6SM SCT010 BKN040
     FM280400 21007KT P6SM SCT010 BKN040
     FM280700 21006KT 5SM BR BKN010
     FM281400 22010KT P6SM SCT012 BKN200
     FM281600 22011KT P6SM FEW020 BKN040
     FM282000 26011G17KT P6SM BKN040=

USA.gov is the U.S. government's official web portal to all federal, state and local government web resources and services.